Ana Sayfa
METAR-TAF:

METAR-TAF

Havaalanları :

Bamako, Mali

Enlem: 12-32N, Boylam: 007-57W, yükseklik: 380 m

Güncel hava durumu gözlemi

Rapor saat 04:30 UTC de 43 dakika önce yapıldı.
Rüzgar doğu/kuzeydoğudan 3 kt
Sıcaklık 21°C
Nem 40%
Basınç 1013 hPa
Görüş mesafesi: 6000 m

METAR: GABS 220430Z 06003KT 6000 NSC 21/07 Q1013 NOSIG

Saat: 05:13 (05:13 UTC)

Tahmin

Rapor saat 23:00 UTC de 6 saat ve 13 dakika önce yapıldı.
Ayın 22'si saat 00 UTC'den ayın 23'si saat 06 UTC'ye kadar geçerli Tahmin
Rüzgar kuzey/kuzeydoğudan 6 kt
Görüş mesafesi: 6000 m
Olasılık 40% :
Geçici
ayın 22'si saat 06 UTC'den ayın 22'si saat 12 UTC'ye kadar
Görüş mesafesi: 4000 m
yaygın toz

TAF: GABS 212300Z 2200/2306 03006KT 6000 NSC PROB40 TEMPO 2206/2212 4000 DU

4.000'den fazla havaalanı için hava durumu gözlemleri ve tahminleri (METAR ve TAF raporları).

Kullanılabilir istasyonlar harita üzerinde sarı ve kırmızı noktalarla gösterilir.

İstasyonun adını görmek için fareyi noktanın üzerinde gezdirin.

Sonrasında hava gözlem ve tahminlerini görmek için tıklayın.

Haritayı değiştirmek için: yaklaştırmak için siyah artı işaretli yeşil düğmeye ve uzaklaştırmak için de eksi işaretli düğmeye hızla tıklayın; bitişik haritalar için yeşil okları kullanın.


METAR-TAF: